sensor_id;sensor_type;location;lat;lon;timestamp;temperature;humidity
13332;DHT22;6735;51.456;12.626;2022-12-18T00:01:29;-6.30;84.20
13332;DHT22;6735;51.456;12.626;2022-12-18T00:03:57;-6.30;84.20
13332;DHT22;6735;51.456;12.626;2022-12-18T00:06:24;-6.40;84.10
13332;DHT22;6735;51.456;12.626;2022-12-18T00:08:51;-6.40;84.10
13332;DHT22;6735;51.456;12.626;2022-12-18T00:11:19;-6.50;83.80
13332;DHT22;6735;51.456;12.626;2022-12-18T00:13:45;-6.50;84.00
13332;DHT22;6735;51.456;12.626;2022-12-18T00:16:13;-6.60;83.60
13332;DHT22;6735;51.456;12.626;2022-12-18T00:18:39;-6.60;83.60
13332;DHT22;6735;51.456;12.626;2022-12-18T00:21:07;-6.70;83.50
13332;DHT22;6735;51.456;12.626;2022-12-18T00:23:34;-6.70;83.40
13332;DHT22;6735;51.456;12.626;2022-12-18T00:26:07;-6.70;83.50
13332;DHT22;6735;51.456;12.626;2022-12-18T00:28:33;-6.70;83.30
13332;DHT22;6735;51.456;12.626;2022-12-18T00:31:07;-6.80;83.00
13332;DHT22;6735;51.456;12.626;2022-12-18T00:33:34;-6.80;83.00
13332;DHT22;6735;51.456;12.626;2022-12-18T00:36:10;-6.80;82.90
13332;DHT22;6735;51.456;12.626;2022-12-18T00:38:37;-6.80;83.00
13332;DHT22;6735;51.456;12.626;2022-12-18T00:41:03;-6.80;82.90
13332;DHT22;6735;51.456;12.626;2022-12-18T00:43:29;-6.90;83.10
13332;DHT22;6735;51.456;12.626;2022-12-18T00:45:55;-6.90;82.90
13332;DHT22;6735;51.456;12.626;2022-12-18T00:48:21;-6.90;83.00
13332;DHT22;6735;51.456;12.626;2022-12-18T00:50:48;-6.90;83.00
13332;DHT22;6735;51.456;12.626;2022-12-18T00:53:13;-7.00;82.90
13332;DHT22;6735;51.456;12.626;2022-12-18T00:55:39;-7.00;82.80
13332;DHT22;6735;51.456;12.626;2022-12-18T00:58:05;-7.00;82.90
13332;DHT22;6735;51.456;12.626;2022-12-18T01:00:30;-7.10;82.70
13332;DHT22;6735;51.456;12.626;2022-12-18T01:02:56;-7.10;82.60
13332;DHT22;6735;51.456;12.626;2022-12-18T01:05:21;-7.10;82.70
13332;DHT22;6735;51.456;12.626;2022-12-18T01:07:47;-7.10;82.60
13332;DHT22;6735;51.456;12.626;2022-12-18T01:10:13;-7.20;82.60
13332;DHT22;6735;51.456;12.626;2022-12-18T01:12:39;-7.20;82.50
13332;DHT22;6735;51.456;12.626;2022-12-18T01:15:06;-7.20;82.30
13332;DHT22;6735;51.456;12.626;2022-12-18T01:17:31;-7.30;82.20
13332;DHT22;6735;51.456;12.626;2022-12-18T01:19:57;-7.30;82.00
13332;DHT22;6735;51.456;12.626;2022-12-18T01:22:22;-7.40;81.60
13332;DHT22;6735;51.456;12.626;2022-12-18T01:24:48;-7.40;81.50
13332;DHT22;6735;51.456;12.626;2022-12-18T01:27:14;-7.40;81.50
13332;DHT22;6735;51.456;12.626;2022-12-18T01:29:39;-7.50;81.20
13332;DHT22;6735;51.456;12.626;2022-12-18T01:32:05;-7.50;81.10
13332;DHT22;6735;51.456;12.626;2022-12-18T01:34:30;-7.60;81.00
13332;DHT22;6735;51.456;12.626;2022-12-18T01:36:56;-7.70;81.10
13332;DHT22;6735;51.456;12.626;2022-12-18T01:39:22;-7.70;81.10
13332;DHT22;6735;51.456;12.626;2022-12-18T01:41:47;-7.70;81.20
13332;DHT22;6735;51.456;12.626;2022-12-18T01:50:21;-7.80;81.30
13332;DHT22;6735;51.456;12.626;2022-12-18T01:52:55;-7.90;81.10
13332;DHT22;6735;51.456;12.626;2022-12-18T01:55:26;-7.80;81.20
13332;DHT22;6735;51.456;12.626;2022-12-18T01:57:55;-7.90;81.10
13332;DHT22;6735;51.456;12.626;2022-12-18T02:00:22;-7.90;81.10
13332;DHT22;6735;51.456;12.626;2022-12-18T02:02:48;-8.00;81.10
13332;DHT22;6735;51.456;12.626;2022-12-18T02:08:31;-8.00;81.00
13332;DHT22;6735;51.456;12.626;2022-12-18T02:11:11;-8.00;81.00
13332;DHT22;6735;51.456;12.626;2022-12-18T02:14:00;-8.00;81.00
13332;DHT22;6735;51.456;12.626;2022-12-18T02:16:30;-8.00;80.80
13332;DHT22;6735;51.456;12.626;2022-12-18T02:19:05;-8.10;80.60
13332;DHT22;6735;51.456;12.626;2022-12-18T02:24:40;-8.20;80.90
13332;DHT22;6735;51.456;12.626;2022-12-18T02:27:09;-8.20;80.90
13332;DHT22;6735;51.456;12.626;2022-12-18T02:29:40;-8.20;80.90
13332;DHT22;6735;51.456;12.626;2022-12-18T02:32:17;-8.20;80.90
13332;DHT22;6735;51.456;12.626;2022-12-18T02:34:44;-8.20;81.00
13332;DHT22;6735;51.456;12.626;2022-12-18T02:37:13;-8.30;80.90
13332;DHT22;6735;51.456;12.626;2022-12-18T02:39:42;-8.30;81.00
13332;DHT22;6735;51.456;12.626;2022-12-18T02:42:08;-8.30;80.90
13332;DHT22;6735;51.456;12.626;2022-12-18T02:44:42;-8.30;80.80
13332;DHT22;6735;51.456;12.626;2022-12-18T02:47:13;-8.40;80.90
13332;DHT22;6735;51.456;12.626;2022-12-18T02:52:21;-8.30;80.80
13332;DHT22;6735;51.456;12.626;2022-12-18T02:57:40;-8.40;80.60
13332;DHT22;6735;51.456;12.626;2022-12-18T03:00:14;-8.40;80.50
13332;DHT22;6735;51.456;12.626;2022-12-18T03:05:47;-8.50;80.30
13332;DHT22;6735;51.456;12.626;2022-12-18T03:08:41;-8.50;80.20
13332;DHT22;6735;51.456;12.626;2022-12-18T03:11:12;-8.50;80.40
13332;DHT22;6735;51.456;12.626;2022-12-18T03:13:50;-8.50;80.40
13332;DHT22;6735;51.456;12.626;2022-12-18T03:16:24;-8.60;80.40
13332;DHT22;6735;51.456;12.626;2022-12-18T03:19:13;-8.60;80.30
13332;DHT22;6735;51.456;12.626;2022-12-18T03:21:49;-8.60;80.50
13332;DHT22;6735;51.456;12.626;2022-12-18T03:24:17;-8.60;80.50
13332;DHT22;6735;51.456;12.626;2022-12-18T03:26:47;-8.60;80.50
13332;DHT22;6735;51.456;12.626;2022-12-18T03:31:59;-8.60;80.60
13332;DHT22;6735;51.456;12.626;2022-12-18T03:34:33;-8.60;80.60
13332;DHT22;6735;51.456;12.626;2022-12-18T03:37:01;-8.60;80.50
13332;DHT22;6735;51.456;12.626;2022-12-18T03:39:26;-8.60;80.40
13332;DHT22;6735;51.456;12.626;2022-12-18T03:47:19;-8.70;80.60
13332;DHT22;6735;51.456;12.626;2022-12-18T03:50:07;-8.70;80.50
13332;DHT22;6735;51.456;12.626;2022-12-18T03:52:49;-8.70;80.60
13332;DHT22;6735;51.456;12.626;2022-12-18T03:55:17;-8.70;80.50
13332;DHT22;6735;51.456;12.626;2022-12-18T03:57:43;-8.80;80.20
13332;DHT22;6735;51.456;12.626;2022-12-18T04:00:12;-8.80;79.90
13332;DHT22;6735;51.456;12.626;2022-12-18T04:02:50;-8.80;80.00
13332;DHT22;6735;51.456;12.626;2022-12-18T04:05:17;-8.80;79.90
13332;DHT22;6735;51.456;12.626;2022-12-18T04:07:45;-8.80;79.80
13332;DHT22;6735;51.456;12.626;2022-12-18T04:10:12;-8.90;79.90
13332;DHT22;6735;51.456;12.626;2022-12-18T04:12:39;-8.90;79.70
13332;DHT22;6735;51.456;12.626;2022-12-18T04:15:05;-8.90;79.70
13332;DHT22;6735;51.456;12.626;2022-12-18T04:17:31;-8.90;79.90
13332;DHT22;6735;51.456;12.626;2022-12-18T04:19:56;-8.90;80.00
13332;DHT22;6735;51.456;12.626;2022-12-18T04:22:22;-8.90;80.10
13332;DHT22;6735;51.456;12.626;2022-12-18T04:24:47;-8.90;80.20
13332;DHT22;6735;51.456;12.626;2022-12-18T04:27:13;-8.90;80.20
13332;DHT22;6735;51.456;12.626;2022-12-18T04:29:39;-8.90;80.10
13332;DHT22;6735;51.456;12.626;2022-12-18T04:32:05;-8.90;80.20
13332;DHT22;6735;51.456;12.626;2022-12-18T04:34:30;-8.90;80.20
13332;DHT22;6735;51.456;12.626;2022-12-18T04:36:56;-8.90;80.20
13332;DHT22;6735;51.456;12.626;2022-12-18T04:39:21;-8.90;80.00
13332;DHT22;6735;51.456;12.626;2022-12-18T04:41:47;-9.00;80.10
13332;DHT22;6735;51.456;12.626;2022-12-18T04:44:12;-8.90;80.10
13332;DHT22;6735;51.456;12.626;2022-12-18T04:46:38;-8.90;80.30
13332;DHT22;6735;51.456;12.626;2022-12-18T04:49:03;-8.90;80.30
13332;DHT22;6735;51.456;12.626;2022-12-18T04:51:29;-8.90;80.40
13332;DHT22;6735;51.456;12.626;2022-12-18T04:53:54;-8.90;80.40
13332;DHT22;6735;51.456;12.626;2022-12-18T04:56:20;-9.00;80.50
13332;DHT22;6735;51.456;12.626;2022-12-18T04:58:46;-8.90;80.60
13332;DHT22;6735;51.456;12.626;2022-12-18T05:01:12;-8.90;80.70
13332;DHT22;6735;51.456;12.626;2022-12-18T05:03:38;-8.90;80.50
13332;DHT22;6735;51.456;12.626;2022-12-18T05:06:05;-9.00;80.40
13332;DHT22;6735;51.456;12.626;2022-12-18T05:08:31;-9.00;80.40
13332;DHT22;6735;51.456;12.626;2022-12-18T05:11:02;-9.00;80.40
13332;DHT22;6735;51.456;12.626;2022-12-18T05:13:28;-9.00;80.50
13332;DHT22;6735;51.456;12.626;2022-12-18T05:15:54;-9.00;80.40
13332;DHT22;6735;51.456;12.626;2022-12-18T05:18:20;-9.00;80.50
13332;DHT22;6735;51.456;12.626;2022-12-18T05:20:46;-9.00;80.40
13332;DHT22;6735;51.456;12.626;2022-12-18T05:23:11;-9.00;80.40
13332;DHT22;6735;51.456;12.626;2022-12-18T05:25:37;-9.00;80.30
13332;DHT22;6735;51.456;12.626;2022-12-18T05:28:02;-9.00;80.20
13332;DHT22;6735;51.456;12.626;2022-12-18T05:30:28;-9.10;80.20
13332;DHT22;6735;51.456;12.626;2022-12-18T05:32:53;-9.10;80.30
13332;DHT22;6735;51.456;12.626;2022-12-18T05:35:19;-9.10;80.30
13332;DHT22;6735;51.456;12.626;2022-12-18T05:37:44;-9.10;80.30
13332;DHT22;6735;51.456;12.626;2022-12-18T05:40:11;-9.10;80.20
13332;DHT22;6735;51.456;12.626;2022-12-18T05:42:37;-9.10;80.20
13332;DHT22;6735;51.456;12.626;2022-12-18T05:45:03;-9.10;80.10
13332;DHT22;6735;51.456;12.626;2022-12-18T05:47:28;-9.10;80.00
13332;DHT22;6735;51.456;12.626;2022-12-18T05:49:54;-9.10;80.20
13332;DHT22;6735;51.456;12.626;2022-12-18T05:52:20;-9.10;80.20
13332;DHT22;6735;51.456;12.626;2022-12-18T05:54:45;-9.10;80.10
13332;DHT22;6735;51.456;12.626;2022-12-18T05:57:11;-9.10;80.10
13332;DHT22;6735;51.456;12.626;2022-12-18T05:59:36;-9.10;80.30
13332;DHT22;6735;51.456;12.626;2022-12-18T06:02:02;-9.20;80.50
13332;DHT22;6735;51.456;12.626;2022-12-18T06:04:31;-9.20;80.50
13332;DHT22;6735;51.456;12.626;2022-12-18T06:06:57;-9.20;80.50
13332;DHT22;6735;51.456;12.626;2022-12-18T06:09:22;-9.20;80.40
13332;DHT22;6735;51.456;12.626;2022-12-18T06:11:48;-9.20;80.20
13332;DHT22;6735;51.456;12.626;2022-12-18T06:14:16;-9.10;80.30
13332;DHT22;6735;51.456;12.626;2022-12-18T06:16:42;-9.20;80.20
13332;DHT22;6735;51.456;12.626;2022-12-18T06:19:12;-9.20;80.20
13332;DHT22;6735;51.456;12.626;2022-12-18T06:21:38;-9.20;79.90
13332;DHT22;6735;51.456;12.626;2022-12-18T06:24:04;-9.20;79.80
13332;DHT22;6735;51.456;12.626;2022-12-18T06:26:30;-9.20;79.70
13332;DHT22;6735;51.456;12.626;2022-12-18T06:28:55;-9.20;80.20
13332;DHT22;6735;51.456;12.626;2022-12-18T06:31:21;-9.20;79.90
13332;DHT22;6735;51.456;12.626;2022-12-18T06:33:47;-9.20;79.80
13332;DHT22;6735;51.456;12.626;2022-12-18T06:36:13;-9.20;79.70
13332;DHT22;6735;51.456;12.626;2022-12-18T06:38:41;-9.20;80.20
13332;DHT22;6735;51.456;12.626;2022-12-18T06:41:12;-9.20;79.60
13332;DHT22;6735;51.456;12.626;2022-12-18T06:43:38;-9.30;79.40
13332;DHT22;6735;51.456;12.626;2022-12-18T06:46:04;-9.30;79.40
13332;DHT22;6735;51.456;12.626;2022-12-18T06:48:30;-9.40;79.30
13332;DHT22;6735;51.456;12.626;2022-12-18T06:50:55;-9.40;79.50
13332;DHT22;6735;51.456;12.626;2022-12-18T06:53:21;-9.30;79.50
13332;DHT22;6735;51.456;12.626;2022-12-18T06:55:47;-9.40;79.40
13332;DHT22;6735;51.456;12.626;2022-12-18T06:58:13;-9.40;79.30
13332;DHT22;6735;51.456;12.626;2022-12-18T07:00:38;-9.40;79.30
13332;DHT22;6735;51.456;12.626;2022-12-18T07:03:04;-9.50;79.20
13332;DHT22;6735;51.456;12.626;2022-12-18T07:05:30;-9.50;79.30
13332;DHT22;6735;51.456;12.626;2022-12-18T07:07:55;-9.50;79.40
13332;DHT22;6735;51.456;12.626;2022-12-18T07:10:21;-9.50;79.30
13332;DHT22;6735;51.456;12.626;2022-12-18T07:12:46;-9.50;79.30
13332;DHT22;6735;51.456;12.626;2022-12-18T07:15:12;-9.50;79.30
13332;DHT22;6735;51.456;12.626;2022-12-18T07:17:37;-9.50;79.50
13332;DHT22;6735;51.456;12.626;2022-12-18T07:20:03;-9.50;79.60
13332;DHT22;6735;51.456;12.626;2022-12-18T07:22:29;-9.50;79.50
13332;DHT22;6735;51.456;12.626;2022-12-18T07:24:54;-9.50;79.40
13332;DHT22;6735;51.456;12.626;2022-12-18T07:27:20;-9.50;79.50
13332;DHT22;6735;51.456;12.626;2022-12-18T07:29:46;-9.50;79.40
13332;DHT22;6735;51.456;12.626;2022-12-18T07:32:11;-9.50;79.50
13332;DHT22;6735;51.456;12.626;2022-12-18T07:34:37;-9.50;79.60
13332;DHT22;6735;51.456;12.626;2022-12-18T07:37:02;-9.40;79.70
13332;DHT22;6735;51.456;12.626;2022-12-18T07:39:28;-9.40;79.70
13332;DHT22;6735;51.456;12.626;2022-12-18T07:41:53;-9.40;79.80
13332;DHT22;6735;51.456;12.626;2022-12-18T07:44:37;-9.30;80.40
13332;DHT22;6735;51.456;12.626;2022-12-18T07:47:03;-9.20;80.40
13332;DHT22;6735;51.456;12.626;2022-12-18T07:49:29;-9.20;80.40
13332;DHT22;6735;51.456;12.626;2022-12-18T07:51:55;-9.10;81.30
13332;DHT22;6735;51.456;12.626;2022-12-18T07:54:22;-9.00;80.80
13332;DHT22;6735;51.456;12.626;2022-12-18T07:56:48;-9.00;80.40
13332;DHT22;6735;51.456;12.626;2022-12-18T07:59:13;-9.00;80.30
13332;DHT22;6735;51.456;12.626;2022-12-18T08:01:39;-9.00;80.20
13332;DHT22;6735;51.456;12.626;2022-12-18T08:04:04;-8.90;80.10
13332;DHT22;6735;51.456;12.626;2022-12-18T08:06:30;-8.90;80.20
13332;DHT22;6735;51.456;12.626;2022-12-18T08:08:56;-8.90;80.30
13332;DHT22;6735;51.456;12.626;2022-12-18T08:11:23;-8.90;80.30
13332;DHT22;6735;51.456;12.626;2022-12-18T08:13:49;-8.80;80.40
13332;DHT22;6735;51.456;12.626;2022-12-18T08:16:16;-8.80;80.40
13332;DHT22;6735;51.456;12.626;2022-12-18T08:18:41;-8.80;80.40
13332;DHT22;6735;51.456;12.626;2022-12-18T08:21:12;-8.70;80.40
13332;DHT22;6735;51.456;12.626;2022-12-18T08:26:53;-8.80;80.60
13332;DHT22;6735;51.456;12.626;2022-12-18T08:29:19;-8.70;80.70
13332;DHT22;6735;51.456;12.626;2022-12-18T08:31:45;-8.70;80.70
13332;DHT22;6735;51.456;12.626;2022-12-18T08:34:10;-8.60;81.00
13332;DHT22;6735;51.456;12.626;2022-12-18T08:36:36;-8.60;81.10
13332;DHT22;6735;51.456;12.626;2022-12-18T08:39:01;-8.60;81.10
13332;DHT22;6735;51.456;12.626;2022-12-18T08:41:27;-8.60;81.00
13332;DHT22;6735;51.456;12.626;2022-12-18T08:43:52;-8.50;81.30
13332;DHT22;6735;51.456;12.626;2022-12-18T08:46:39;-8.50;81.30
13332;DHT22;6735;51.456;12.626;2022-12-18T08:49:06;-8.50;81.40
13332;DHT22;6735;51.456;12.626;2022-12-18T08:51:33;-8.60;81.40
13332;DHT22;6735;51.456;12.626;2022-12-18T08:53:59;-8.50;81.70
13332;DHT22;6735;51.456;12.626;2022-12-18T08:56:25;-8.40;81.80
13332;DHT22;6735;51.456;12.626;2022-12-18T08:58:52;-8.40;81.60
13332;DHT22;6735;51.456;12.626;2022-12-18T09:01:18;-8.40;81.60
13332;DHT22;6735;51.456;12.626;2022-12-18T09:03:44;-8.30;81.80
13332;DHT22;6735;51.456;12.626;2022-12-18T09:06:14;-8.10;82.60
13332;DHT22;6735;51.456;12.626;2022-12-18T09:08:40;-8.10;81.70
13332;DHT22;6735;51.456;12.626;2022-12-18T09:11:15;-8.20;81.70
13332;DHT22;6735;51.456;12.626;2022-12-18T09:13:40;-8.20;81.70
13332;DHT22;6735;51.456;12.626;2022-12-18T09:16:06;-7.90;82.70
13332;DHT22;6735;51.456;12.626;2022-12-18T09:18:32;-7.90;82.00
13332;DHT22;6735;51.456;12.626;2022-12-18T09:20:57;-7.80;81.80
13332;DHT22;6735;51.456;12.626;2022-12-18T09:23:23;-7.80;81.60
13332;DHT22;6735;51.456;12.626;2022-12-18T09:25:49;-7.70;81.60
13332;DHT22;6735;51.456;12.626;2022-12-18T09:28:16;-7.70;81.50
13332;DHT22;6735;51.456;12.626;2022-12-18T09:30:45;-7.60;81.50
13332;DHT22;6735;51.456;12.626;2022-12-18T09:33:11;-7.60;81.60
13332;DHT22;6735;51.456;12.626;2022-12-18T09:35:37;-7.50;81.70
13332;DHT22;6735;51.456;12.626;2022-12-18T09:38:04;-7.50;81.90
13332;DHT22;6735;51.456;12.626;2022-12-18T09:40:35;-7.50;82.10
13332;DHT22;6735;51.456;12.626;2022-12-18T09:43:04;-7.40;82.00
13332;DHT22;6735;51.456;12.626;2022-12-18T09:45:43;-7.30;82.20
13332;DHT22;6735;51.456;12.626;2022-12-18T09:48:18;-7.30;82.20
13332;DHT22;6735;51.456;12.626;2022-12-18T09:50:45;-7.10;82.40
13332;DHT22;6735;51.456;12.626;2022-12-18T09:53:22;-7.00;82.30
13332;DHT22;6735;51.456;12.626;2022-12-18T09:55:51;-6.90;82.10
13332;DHT22;6735;51.456;12.626;2022-12-18T09:58:49;-6.80;82.00
13332;DHT22;6735;51.456;12.626;2022-12-18T10:01:20;-6.70;82.00
13332;DHT22;6735;51.456;12.626;2022-12-18T10:03:46;-6.50;81.90
13332;DHT22;6735;51.456;12.626;2022-12-18T10:11:52;-6.40;81.60
13332;DHT22;6735;51.456;12.626;2022-12-18T10:17:26;-6.30;81.40
13332;DHT22;6735;51.456;12.626;2022-12-18T10:20:05;-6.30;81.50
13332;DHT22;6735;51.456;12.626;2022-12-18T10:25:34;-6.20;81.60
13332;DHT22;6735;51.456;12.626;2022-12-18T10:28:15;-6.10;81.70
13332;DHT22;6735;51.456;12.626;2022-12-18T10:30:42;-6.10;81.50
13332;DHT22;6735;51.456;12.626;2022-12-18T10:33:20;-6.00;81.90
13332;DHT22;6735;51.456;12.626;2022-12-18T10:35:48;-6.00;81.90
13332;DHT22;6735;51.456;12.626;2022-12-18T10:41:01;-5.90;81.80
13332;DHT22;6735;51.456;12.626;2022-12-18T10:48:27;-5.80;82.00
13332;DHT22;6735;51.456;12.626;2022-12-18T10:50:53;-5.80;82.20
13332;DHT22;6735;51.456;12.626;2022-12-18T10:53:22;-5.70;82.20
13332;DHT22;6735;51.456;12.626;2022-12-18T10:55:48;-5.70;82.40
13332;DHT22;6735;51.456;12.626;2022-12-18T11:06:22;-5.60;82.40
13332;DHT22;6735;51.456;12.626;2022-12-18T11:09:01;-5.60;82.10
13332;DHT22;6735;51.456;12.626;2022-12-18T11:11:27;-5.60;82.30
13332;DHT22;6735;51.456;12.626;2022-12-18T11:14:01;-5.50;82.30
13332;DHT22;6735;51.456;12.626;2022-12-18T11:16:28;-5.50;82.30
13332;DHT22;6735;51.456;12.626;2022-12-18T11:21:50;-5.40;82.30
13332;DHT22;6735;51.456;12.626;2022-12-18T11:24:23;-5.40;82.50
13332;DHT22;6735;51.456;12.626;2022-12-18T11:26:50;-5.30;82.70
13332;DHT22;6735;51.456;12.626;2022-12-18T11:29:19;-5.30;82.60
13332;DHT22;6735;51.456;12.626;2022-12-18T11:31:48;-5.20;82.60
13332;DHT22;6735;51.456;12.626;2022-12-18T11:34:26;-5.20;82.50
13332;DHT22;6735;51.456;12.626;2022-12-18T11:36:53;-5.10;82.40
13332;DHT22;6735;51.456;12.626;2022-12-18T11:39:44;-5.10;82.30
13332;DHT22;6735;51.456;12.626;2022-12-18T11:42:20;-5.10;82.20
13332;DHT22;6735;51.456;12.626;2022-12-18T11:45:03;-5.10;82.10
13332;DHT22;6735;51.456;12.626;2022-12-18T11:48:01;-5.00;82.10
13332;DHT22;6735;51.456;12.626;2022-12-18T11:50:33;-4.90;82.20
13332;DHT22;6735;51.456;12.626;2022-12-18T11:53:03;-4.90;82.00
13332;DHT22;6735;51.456;12.626;2022-12-18T11:55:30;-4.80;82.00
13332;DHT22;6735;51.456;12.626;2022-12-18T11:58:24;-4.70;82.50
13332;DHT22;6735;51.456;12.626;2022-12-18T12:04:14;-4.70;81.80
13332;DHT22;6735;51.456;12.626;2022-12-18T12:09:39;-4.70;81.60
13332;DHT22;6735;51.456;12.626;2022-12-18T12:15:05;-4.70;81.60
13332;DHT22;6735;51.456;12.626;2022-12-18T12:17:45;-4.60;81.70
13332;DHT22;6735;51.456;12.626;2022-12-18T12:20:20;-4.60;81.50
13332;DHT22;6735;51.456;12.626;2022-12-18T12:28:36;-4.50;80.70
13332;DHT22;6735;51.456;12.626;2022-12-18T12:34:49;-4.50;80.70
13332;DHT22;6735;51.456;12.626;2022-12-18T12:39:30;-4.40;80.70
13332;DHT22;6735;51.456;12.626;2022-12-18T12:41:57;-4.40;80.60
13332;DHT22;6735;51.456;12.626;2022-12-18T12:44:49;-4.40;80.50
13332;DHT22;6735;51.456;12.626;2022-12-18T12:47:22;-4.50;80.70
13332;DHT22;6735;51.456;12.626;2022-12-18T12:49:49;-4.50;80.90
13332;DHT22;6735;51.456;12.626;2022-12-18T12:52:21;-4.50;81.10
13332;DHT22;6735;51.456;12.626;2022-12-18T12:54:50;-4.50;81.10
13332;DHT22;6735;51.456;12.626;2022-12-18T12:57:21;-4.50;81.00
13332;DHT22;6735;51.456;12.626;2022-12-18T13:08:09;-4.40;81.30
13332;DHT22;6735;51.456;12.626;2022-12-18T13:10:36;-4.40;81.30
13332;DHT22;6735;51.456;12.626;2022-12-18T13:13:15;-4.40;81.30
13332;DHT22;6735;51.456;12.626;2022-12-18T13:15:42;-4.40;80.90
13332;DHT22;6735;51.456;12.626;2022-12-18T13:20:42;-4.40;80.40
13332;DHT22;6735;51.456;12.626;2022-12-18T13:23:30;-4.30;80.30
13332;DHT22;6735;51.456;12.626;2022-12-18T13:34:21;-4.40;80.00
13332;DHT22;6735;51.456;12.626;2022-12-18T13:36:47;-4.40;79.90
13332;DHT22;6735;51.456;12.626;2022-12-18T13:41:42;-4.50;79.60
13332;DHT22;6735;51.456;12.626;2022-12-18T13:44:21;-4.40;79.80
13332;DHT22;6735;51.456;12.626;2022-12-18T13:46:50;-4.40;79.90
13332;DHT22;6735;51.456;12.626;2022-12-18T13:49:27;-4.50;80.00
13332;DHT22;6735;51.456;12.626;2022-12-18T13:51:56;-4.50;79.90
13332;DHT22;6735;51.456;12.626;2022-12-18T13:56:59;-4.50;80.00
13332;DHT22;6735;51.456;12.626;2022-12-18T13:59:39;-4.50;80.00
13332;DHT22;6735;51.456;12.626;2022-12-18T14:02:25;-4.50;80.20
13332;DHT22;6735;51.456;12.626;2022-12-18T14:04:52;-4.60;80.30
13332;DHT22;6735;51.456;12.626;2022-12-18T14:07:25;-4.60;80.40
13332;DHT22;6735;51.456;12.626;2022-12-18T14:09:55;-4.70;80.50
13332;DHT22;6735;51.456;12.626;2022-12-18T14:12:28;-4.70;80.80
13332;DHT22;6735;51.456;12.626;2022-12-18T14:15:34;-4.70;81.10
13332;DHT22;6735;51.456;12.626;2022-12-18T14:18:20;-4.70;81.20
13332;DHT22;6735;51.456;12.626;2022-12-18T14:20:48;-4.70;81.30
13332;DHT22;6735;51.456;12.626;2022-12-18T14:23:34;-4.70;81.50
13332;DHT22;6735;51.456;12.626;2022-12-18T14:26:02;-4.70;81.70
13332;DHT22;6735;51.456;12.626;2022-12-18T14:28:28;-4.70;81.80
13332;DHT22;6735;51.456;12.626;2022-12-18T14:30:54;-4.70;81.90
13332;DHT22;6735;51.456;12.626;2022-12-18T14:33:26;-4.70;82.20
13332;DHT22;6735;51.456;12.626;2022-12-18T14:35:59;-4.70;82.30
13332;DHT22;6735;51.456;12.626;2022-12-18T14:41:12;-4.70;82.60
13332;DHT22;6735;51.456;12.626;2022-12-18T14:43:39;-4.70;82.70
13332;DHT22;6735;51.456;12.626;2022-12-18T14:46:37;-4.70;82.70
13332;DHT22;6735;51.456;12.626;2022-12-18T14:49:17;-4.70;82.60
13332;DHT22;6735;51.456;12.626;2022-12-18T14:51:55;-4.70;82.60
13332;DHT22;6735;51.456;12.626;2022-12-18T14:54:23;-4.80;82.60
13332;DHT22;6735;51.456;12.626;2022-12-18T14:56:54;-4.80;82.70
13332;DHT22;6735;51.456;12.626;2022-12-18T14:59:25;-4.80;82.80
13332;DHT22;6735;51.456;12.626;2022-12-18T15:04:38;-4.80;82.80
13332;DHT22;6735;51.456;12.626;2022-12-18T15:07:18;-4.90;82.60
13332;DHT22;6735;51.456;12.626;2022-12-18T15:12:40;-4.90;82.70
13332;DHT22;6735;51.456;12.626;2022-12-18T15:20:38;-5.00;82.80
13332;DHT22;6735;51.456;12.626;2022-12-18T15:23:11;-5.00;82.80
13332;DHT22;6735;51.456;12.626;2022-12-18T15:25:37;-5.10;82.70
13332;DHT22;6735;51.456;12.626;2022-12-18T15:28:12;-5.10;82.80
13332;DHT22;6735;51.456;12.626;2022-12-18T15:30:58;-5.10;82.80
13332;DHT22;6735;51.456;12.626;2022-12-18T15:33:26;-5.10;82.80
13332;DHT22;6735;51.456;12.626;2022-12-18T15:35:57;-5.20;82.70
13332;DHT22;6735;51.456;12.626;2022-12-18T15:38:22;-5.20;82.60
13332;DHT22;6735;51.456;12.626;2022-12-18T15:40:48;-5.20;82.70
13332;DHT22;6735;51.456;12.626;2022-12-18T15:43:13;-5.30;83.00
13332;DHT22;6735;51.456;12.626;2022-12-18T15:45:58;-5.20;83.70
13332;DHT22;6735;51.456;12.626;2022-12-18T15:48:23;-5.10;83.70
13332;DHT22;6735;51.456;12.626;2022-12-18T15:50:53;-5.10;84.10
13332;DHT22;6735;51.456;12.626;2022-12-18T15:53:20;-5.10;84.40
13332;DHT22;6735;51.456;12.626;2022-12-18T15:55:46;-5.00;84.40
13332;DHT22;6735;51.456;12.626;2022-12-18T15:58:30;-4.90;84.30
13332;DHT22;6735;51.456;12.626;2022-12-18T16:00:58;-4.90;84.20
13332;DHT22;6735;51.456;12.626;2022-12-18T16:03:23;-4.90;84.00
13332;DHT22;6735;51.456;12.626;2022-12-18T16:05:49;-4.90;83.90
13332;DHT22;6735;51.456;12.626;2022-12-18T16:08:14;-4.90;83.90
13332;DHT22;6735;51.456;12.626;2022-12-18T16:10:40;-4.80;83.90
13332;DHT22;6735;51.456;12.626;2022-12-18T16:13:09;-4.80;83.70
13332;DHT22;6735;51.456;12.626;2022-12-18T16:15:35;-4.80;83.60
13332;DHT22;6735;51.456;12.626;2022-12-18T16:18:00;-4.90;83.50
13332;DHT22;6735;51.456;12.626;2022-12-18T16:20:26;-4.90;83.50
13332;DHT22;6735;51.456;12.626;2022-12-18T16:22:51;-4.90;83.50
13332;DHT22;6735;51.456;12.626;2022-12-18T16:25:24;-4.90;83.60
13332;DHT22;6735;51.456;12.626;2022-12-18T16:27:51;-4.90;83.60
13332;DHT22;6735;51.456;12.626;2022-12-18T16:30:20;-4.90;83.40
13332;DHT22;6735;51.456;12.626;2022-12-18T16:32:46;-4.90;83.50
13332;DHT22;6735;51.456;12.626;2022-12-18T16:35:13;-5.00;83.50
13332;DHT22;6735;51.456;12.626;2022-12-18T16:37:39;-5.00;83.50
13332;DHT22;6735;51.456;12.626;2022-12-18T16:40:07;-5.00;83.50
13332;DHT22;6735;51.456;12.626;2022-12-18T16:42:35;-5.00;83.40
13332;DHT22;6735;51.456;12.626;2022-12-18T16:45:00;-5.00;83.40
13332;DHT22;6735;51.456;12.626;2022-12-18T16:47:26;-5.00;83.30
13332;DHT22;6735;51.456;12.626;2022-12-18T16:49:52;-5.00;83.30
13332;DHT22;6735;51.456;12.626;2022-12-18T16:52:18;-5.00;83.30
13332;DHT22;6735;51.456;12.626;2022-12-18T16:54:44;-5.00;83.30
13332;DHT22;6735;51.456;12.626;2022-12-18T16:57:15;-5.10;83.20
13332;DHT22;6735;51.456;12.626;2022-12-18T16:59:41;-5.00;83.20
13332;DHT22;6735;51.456;12.626;2022-12-18T17:02:18;-5.10;83.10
13332;DHT22;6735;51.456;12.626;2022-12-18T17:04:45;-5.10;83.20
13332;DHT22;6735;51.456;12.626;2022-12-18T17:07:11;-5.10;83.20
13332;DHT22;6735;51.456;12.626;2022-12-18T17:09:37;-5.10;83.20
13332;DHT22;6735;51.456;12.626;2022-12-18T17:12:03;-5.10;83.30
13332;DHT22;6735;51.456;12.626;2022-12-18T17:14:29;-5.10;83.30
13332;DHT22;6735;51.456;12.626;2022-12-18T17:16:55;-5.10;83.20
13332;DHT22;6735;51.456;12.626;2022-12-18T17:19:27;-5.10;83.10
13332;DHT22;6735;51.456;12.626;2022-12-18T17:21:53;-5.10;83.00
13332;DHT22;6735;51.456;12.626;2022-12-18T17:24:19;-5.10;83.00
13332;DHT22;6735;51.456;12.626;2022-12-18T17:26:45;-5.20;83.00
13332;DHT22;6735;51.456;12.626;2022-12-18T17:29:16;-5.20;83.00
13332;DHT22;6735;51.456;12.626;2022-12-18T17:31:43;-5.20;83.00
13332;DHT22;6735;51.456;12.626;2022-12-18T17:34:10;-5.20;83.10
13332;DHT22;6735;51.456;12.626;2022-12-18T17:36:36;-5.20;83.20
13332;DHT22;6735;51.456;12.626;2022-12-18T17:39:02;-5.20;83.20
13332;DHT22;6735;51.456;12.626;2022-12-18T17:41:29;-5.20;83.30
13332;DHT22;6735;51.456;12.626;2022-12-18T17:44:03;-5.20;83.30